Wabuska, Nevada
Current Conditions -  °F | °C
As of 2:35 PM on Friday 19 Dec 2014 (Local Time) from KMEV Reporting Station
Light Rain Light Rain  
Wind Chill: 37°   Ceiling: 3900
Heat Index: 41°   Visibility: 9mi
Dew Point: 36°   Wind: 6mph
Humidity: 81%   Direction: 320°NW
Pressure: 30.13"   Gusts: NA
Location:  38.8785°N, 119.096°W
Report Text: KMEV 192235Z AUTO 32005KT 9SM -RA SCT025 BKN039 05/02 A3013 RMK AO2 P0001
Loading
Personal Weather Stations






























Interactive Weather Map New forecast layout! Learn more

10-Day Weather Forecast

Advertisements
Track Severe Weather on mobile